Time;durP1;ratioP1;P1;durP2;ratioP2;P2;SDS_P1;SDS_P2;PMS_P1;PMS_P2;Temp;Humidity;BMP_temperature;BMP_pressure;BME280_temperature;BME280_humidity;BME280_pressure;Samples;Min_cycle;Max_cycle;Signal;HPM_P1;HPM_P2
2023/06/27 00:01:20;;;;;;;;;0.00;0.00;;;;;;;;5077394;27;45531;-85
2023/06/27 00:03:45;;;;;;;;;1.33;0.00;;;;;;;;5077104;27;47215;-85
2023/06/27 00:06:10;;;;;;;;;0.00;0.00;;;;;;;;5077665;27;45284;-86
2023/06/27 00:08:38;;;;;;;;;0.00;0.00;;;;;;;;5077634;27;45224;-85
2023/06/27 00:11:03;;;;;;;;;0.00;0.00;;;;;;;;5077822;28;45405;-86
2023/06/27 00:13:28;;;;;;;;;2.33;0.00;;;;;;;;5075885;28;48185;-84
2023/06/27 00:15:54;;;;;;;;;0.00;0.00;;;;;;;;5077114;27;45307;-86
2023/06/27 00:18:21;;;;;;;;;0.00;0.00;;;;;;;;5075884;28;45356;-85
2023/06/27 00:20:46;;;;;;;;;0.00;0.00;;;;;;;;5077400;27;45460;-85
2023/06/27 00:23:33;;;;;;;;;0.50;0.00;;;;;;;;5077374;28;46571;-85
2023/06/27 00:25:59;;;;;;;;;0.00;0.00;;;;;;;;5076513;27;46190;-85
2023/06/27 00:28:24;;;;;;;;;0.00;0.00;;;;;;;;5076276;28;45474;-85
2023/06/27 00:30:50;;;;;;;;;0.00;0.00;;;;;;;;5077024;28;45493;-85
2023/06/27 00:33:15;;;;;;;;;0.00;0.00;;;;;;;;5076493;28;46292;-85
2023/06/27 00:35:40;;;;;;;;;0.00;0.00;;;;;;;;5075825;28;45428;-85
2023/06/27 00:38:05;;;;;;;;;0.00;0.00;;;;;;;;5077239;27;45469;-85
2023/06/27 00:40:31;;;;;;;;;0.00;0.00;;;;;;;;5076903;27;45571;-85
2023/06/27 00:42:57;;;;;;;;;0.00;0.00;;;;;;;;5076993;27;47181;-85
2023/06/27 00:45:23;;;;;;;;;2.00;0.50;;;;;;;;5076450;28;45341;-86
2023/06/27 00:47:49;;;;;;;;;1.00;0.50;;;;;;;;5056567;28;45339;-85
2023/06/27 00:50:15;;;;;;;;;0.00;0.00;;;;;;;;5056984;28;45753;-86
2023/06/27 00:52:40;;;;;;;;;1.00;0.00;;;;;;;;5075378;28;46661;-86
2023/06/27 00:55:06;;;;;;;;;0.00;0.00;;;;;;;;5075868;28;45706;-86
2023/06/27 00:57:31;;;;;;;;;3.75;0.00;;;;;;;;5059304;27;45438;-84
2023/06/27 00:59:57;;;;;;;;;0.00;0.00;;;;;;;;5056474;28;45416;-86
2023/06/27 01:02:23;;;;;;;;;2.00;0.00;;;;;;;;5071806;28;45324;-85
2023/06/27 01:04:49;;;;;;;;;1.00;0.00;;;;;;;;5076513;28;45388;-85
2023/06/27 01:07:18;;;;;;;;;0.00;0.00;;;;;;;;5062476;28;45383;-86
2023/06/27 01:09:48;;;;;;;;;1.00;0.00;;;;;;;;5065463;28;45522;-85
2023/06/27 01:12:23;;;;;;;;;0.00;0.00;;;;;;;;5076634;28;45538;-85
2023/06/27 01:14:50;;;;;;;;;2.00;0.00;;;;;;;;5059918;28;45379;-86
2023/06/27 01:17:16;;;;;;;;;2.00;0.00;;;;;;;;5056822;28;45368;-85
2023/06/27 01:19:44;;;;;;;;;0.00;0.00;;;;;;;;5056222;28;45405;-85
2023/06/27 01:22:12;;;;;;;;;0.25;0.00;;;;;;;;5055948;28;46732;-85
2023/06/27 01:24:38;;;;;;;;;1.00;0.00;;;;;;;;5056034;28;45466;-85
2023/06/27 01:27:04;;;;;;;;;2.00;0.00;;;;;;;;5076706;28;45499;-86
2023/06/27 01:29:29;;;;;;;;;1.25;0.00;;;;;;;;5076207;28;45410;-85
2023/06/27 01:32:03;;;;;;;;;0.00;0.00;;;;;;;;5075933;28;45414;-86
2023/06/27 01:34:33;;;;;;;;;0.25;0.25;;;;;;;;5057854;28;45366;-85
2023/06/27 01:37:08;;;;;;;;;1.25;0.00;;;;;;;;5076520;28;45352;-85
2023/06/27 01:39:44;;;;;;;;;0.00;0.00;;;;;;;;5076010;28;45340;-85
2023/06/27 01:42:14;;;;;;;;;0.50;0.00;;;;;;;;5076326;28;45544;-85
2023/06/27 01:44:42;;;;;;;;;0.00;0.00;;;;;;;;5075673;28;45748;-85
2023/06/27 01:47:08;;;;;;;;;0.00;0.00;;;;;;;;5076222;28;45446;-85
2023/06/27 01:49:33;;;;;;;;;1.00;0.00;;;;;;;;5076250;28;45439;-84
2023/06/27 01:51:58;;;;;;;;;0.00;0.00;;;;;;;;5075959;28;47285;-85
2023/06/27 01:54:24;;;;;;;;;2.00;0.67;;;;;;;;5075382;28;45253;-85
2023/06/27 01:56:49;;;;;;;;;0.25;0.00;;;;;;;;5075819;28;45344;-85
2023/06/27 01:59:14;;;;;;;;;0.00;0.00;;;;;;;;5076106;28;45361;-85
2023/06/27 02:01:39;;;;;;;;;0.00;0.00;;;;;;;;5075484;28;47127;-85
2023/06/27 02:04:04;;;;;;;;;0.00;0.00;;;;;;;;5075809;28;45443;-85
2023/06/27 02:06:30;;;;;;;;;1.00;0.00;;;;;;;;5057917;28;45499;-86
2023/06/27 02:08:55;;;;;;;;;0.00;0.00;;;;;;;;5075851;28;45368;-85
2023/06/27 02:11:20;;;;;;;;;1.00;0.00;;;;;;;;5075602;28;45662;-85
2023/06/27 02:13:46;;;;;;;;;0.00;0.00;;;;;;;;5067963;28;45384;-84
2023/06/27 02:16:11;;;;;;;;;0.00;0.00;;;;;;;;5055245;28;45411;-84
2023/06/27 02:18:36;;;;;;;;;0.00;0.00;;;;;;;;5037488;28;45526;-85
2023/06/27 02:21:02;;;;;;;;;0.00;0.00;;;;;;;;5055141;28;46316;-85
2023/06/27 02:23:27;;;;;;;;;1.67;0.00;;;;;;;;5055449;28;45377;-85
2023/06/27 02:25:53;;;;;;;;;2.00;0.00;;;;;;;;5055533;28;45446;-85
2023/06/27 02:28:18;;;;;;;;;0.00;0.00;;;;;;;;5037143;28;45512;-83
2023/06/27 02:30:43;;;;;;;;;2.00;0.00;;;;;;;;5055023;28;45434;-85
2023/06/27 02:33:08;;;;;;;;;0.33;0.33;;;;;;;;5055208;28;45569;-85
2023/06/27 02:35:33;;;;;;;;;0.00;0.00;;;;;;;;5055443;28;45380;-84
2023/06/27 02:37:59;;;;;;;;;0.00;0.00;;;;;;;;5055223;28;45428;-85
2023/06/27 02:40:24;;;;;;;;;2.00;0.00;;;;;;;;5055062;28;46268;-85
2023/06/27 02:42:50;;;;;;;;;0.00;0.00;;;;;;;;5054518;28;45235;-84
2023/06/27 02:45:16;;;;;;;;;0.00;0.00;;;;;;;;5055256;28;45281;-85
2023/06/27 02:47:41;;;;;;;;;3.00;0.00;;;;;;;;5055128;28;45551;-85
2023/06/27 02:50:06;;;;;;;;;1.75;0.50;;;;;;;;5054946;28;46435;-84
2023/06/27 02:52:31;;;;;;;;;4.00;0.75;;;;;;;;5055052;28;45252;-85
2023/06/27 02:54:57;;;;;;;;;0.67;0.67;;;;;;;;5055215;28;45274;-84
2023/06/27 02:57:22;;;;;;;;;0.33;0.00;;;;;;;;5073642;27;45245;-84
2023/06/27 02:59:47;;;;;;;;;4.00;1.00;;;;;;;;5078440;27;47212;-85
2023/06/27 03:02:12;;;;;;;;;0.00;0.00;;;;;;;;5078829;27;45393;-84
2023/06/27 03:04:38;;;;;;;;;0.00;0.00;;;;;;;;5078906;27;45424;-85
2023/06/27 03:07:04;;;;;;;;;1.00;1.00;;;;;;;;5078750;27;45441;-85
2023/06/27 03:09:29;;;;;;;;;2.00;1.00;;;;;;;;5078450;27;45356;-85
2023/06/27 03:11:54;;;;;;;;;1.00;1.00;;;;;;;;5078199;27;45272;-85
2023/06/27 03:14:19;;;;;;;;;2.00;0.00;;;;;;;;5078728;27;45328;-84
2023/06/27 03:16:45;;;;;;;;;4.00;1.00;;;;;;;;5078546;27;45510;-85
2023/06/27 03:19:10;;;;;;;;;1.00;1.00;;;;;;;;5078360;27;45658;-85
2023/06/27 03:21:35;;;;;;;;;1.00;0.00;;;;;;;;5078306;27;45349;-85
2023/06/27 03:24:01;;;;;;;;;0.33;0.00;;;;;;;;5078788;27;45520;-85
2023/06/27 03:26:28;;;;;;;;;0.00;0.00;;;;;;;;5077011;28;45435;-84
2023/06/27 03:28:53;;;;;;;;;1.00;1.00;;;;;;;;5078118;27;45606;-85
2023/06/27 03:31:18;;;;;;;;;0.75;0.00;;;;;;;;5078177;27;45364;-85
2023/06/27 03:33:44;;;;;;;;;0.00;0.00;;;;;;;;5111193;27;45357;-84
2023/06/27 03:36:09;;;;;;;;;0.00;0.00;;;;;;;;5078387;27;45461;-84
2023/06/27 03:38:34;;;;;;;;;0.33;0.00;;;;;;;;5078190;27;45323;-84
2023/06/27 03:40:59;;;;;;;;;0.00;0.00;;;;;;;;5077639;27;45454;-84
2023/06/27 03:43:25;;;;;;;;;1.00;0.00;;;;;;;;5078145;27;45441;-84
2023/06/27 03:45:50;;;;;;;;;1.75;0.00;;;;;;;;5078130;27;45602;-85
2023/06/27 03:48:15;;;;;;;;;0.33;0.33;;;;;;;;5078050;27;46569;-85
2023/06/27 03:50:40;;;;;;;;;3.00;1.00;;;;;;;;5077978;27;45350;-84
2023/06/27 03:53:06;;;;;;;;;1.00;1.00;;;;;;;;5078040;27;45383;-84
2023/06/27 03:55:33;;;;;;;;;2.33;0.33;;;;;;;;5077167;27;45339;-83
2023/06/27 03:57:58;;;;;;;;;1.00;1.00;;;;;;;;5077616;27;46962;-83
2023/06/27 04:00:23;;;;;;;;;0.33;0.33;;;;;;;;5077951;27;45417;-83
2023/06/27 04:02:48;;;;;;;;;0.00;0.00;;;;;;;;5078020;27;45496;-84
2023/06/27 04:05:13;;;;;;;;;0.00;0.00;;;;;;;;5077990;27;45359;-84
2023/06/27 04:07:41;;;;;;;;;0.33;0.33;;;;;;;;5075960;28;47145;-83
2023/06/27 04:10:06;;;;;;;;;1.00;1.00;;;;;;;;5077414;27;45310;-84
2023/06/27 04:12:31;;;;;;;;;0.75;0.00;;;;;;;;5077855;28;45365;-83
2023/06/27 04:14:57;;;;;;;;;2.33;0.00;;;;;;;;5076437;28;45471;-84
2023/06/27 04:17:22;;;;;;;;;1.00;1.00;;;;;;;;5077310;27;47759;-84
2023/06/27 04:19:47;;;;;;;;;1.00;1.00;;;;;;;;5077376;27;45260;-83
2023/06/27 04:22:12;;;;;;;;;1.00;1.00;;;;;;;;5077613;27;45401;-84
2023/06/27 04:24:37;;;;;;;;;3.00;1.00;;;;;;;;5077136;27;45350;-84
2023/06/27 04:27:03;;;;;;;;;0.00;0.00;;;;;;;;5077360;27;46585;-84
2023/06/27 04:29:28;;;;;;;;;0.00;0.00;;;;;;;;5077206;27;45490;-84
2023/06/27 04:31:53;;;;;;;;;0.67;0.67;;;;;;;;5077775;27;45470;-83
2023/06/27 04:34:18;;;;;;;;;0.33;0.00;;;;;;;;5077288;27;45272;-84
2023/06/27 04:36:44;;;;;;;;;1.00;1.00;;;;;;;;5077500;27;46572;-83
2023/06/27 04:39:09;;;;;;;;;0.00;0.00;;;;;;;;5076915;27;45394;-84
2023/06/27 04:41:34;;;;;;;;;2.25;1.00;;;;;;;;5077613;27;45329;-84
2023/06/27 04:44:00;;;;;;;;;1.75;0.50;;;;;;;;5077282;27;45241;-83
2023/06/27 04:46:28;;;;;;;;;1.00;1.00;;;;;;;;5077110;27;46245;-84
2023/06/27 04:48:56;;;;;;;;;2.25;1.00;;;;;;;;5077247;27;45253;-83
2023/06/27 04:51:21;;;;;;;;;0.00;0.00;;;;;;;;5077239;27;45342;-84
2023/06/27 04:53:47;;;;;;;;;3.75;0.50;;;;;;;;5076933;27;45518;-84
2023/06/27 04:56:12;;;;;;;;;1.00;0.67;;;;;;;;5076727;27;46166;-84
2023/06/27 04:58:37;;;;;;;;;2.00;1.00;;;;;;;;5076754;27;45470;-84
2023/06/27 05:01:02;;;;;;;;;1.33;1.33;;;;;;;;5077077;27;45285;-84
2023/06/27 05:03:28;;;;;;;;;0.75;0.00;;;;;;;;5077165;27;45295;-84
2023/06/27 05:05:53;;;;;;;;;4.67;2.67;;;;;;;;5075337;28;48231;-84
2023/06/27 05:08:18;;;;;;;;;1.67;1.00;;;;;;;;5076004;27;45359;-81
2023/06/27 05:10:43;;;;;;;;;2.67;2.00;;;;;;;;5075998;27;45484;-83
2023/06/27 05:13:08;;;;;;;;;1.00;0.67;;;;;;;;5076612;27;45472;-82
2023/06/27 05:15:34;;;;;;;;;2.00;1.00;;;;;;;;5076595;27;45401;-82
2023/06/27 05:18:08;;;;;;;;;2.67;2.00;;;;;;;;5074790;27;45475;-82
2023/06/27 05:20:34;;;;;;;;;1.50;1.50;;;;;;;;5076530;27;45367;-82
2023/06/27 05:23:01;;;;;;;;;5.00;2.00;;;;;;;;5076187;28;45395;-83
2023/06/27 05:25:26;;;;;;;;;3.00;1.00;;;;;;;;5076225;27;47136;-83
2023/06/27 05:27:51;;;;;;;;;1.00;1.00;;;;;;;;5076496;27;45371;-83
2023/06/27 05:30:16;;;;;;;;;1.00;1.00;;;;;;;;5076618;27;45347;-83
2023/06/27 05:32:41;;;;;;;;;3.00;1.00;;;;;;;;5076777;27;45241;-82
2023/06/27 05:35:07;;;;;;;;;2.00;0.67;;;;;;;;5076561;27;45464;-82
2023/06/27 05:37:32;;;;;;;;;1.00;1.00;;;;;;;;5076069;27;45243;-83
2023/06/27 05:39:57;;;;;;;;;3.67;2.00;;;;;;;;5076044;27;45327;-83
2023/06/27 05:42:22;;;;;;;;;5.67;2.00;;;;;;;;5076272;27;45324;-83
2023/06/27 05:44:47;;;;;;;;;1.00;1.00;;;;;;;;5076081;27;46395;-83
2023/06/27 05:47:13;;;;;;;;;2.33;1.33;;;;;;;;5076601;27;45400;-83
2023/06/27 05:49:38;;;;;;;;;4.50;1.00;;;;;;;;5076519;27;45308;-83
2023/06/27 05:52:04;;;;;;;;;1.00;1.00;;;;;;;;5076199;27;45253;-82
2023/06/27 05:54:29;;;;;;;;;1.00;1.00;;;;;;;;5075746;27;45418;-84
2023/06/27 05:56:54;;;;;;;;;2.00;0.33;;;;;;;;5108295;27;45347;-83
2023/06/27 05:59:19;;;;;;;;;1.00;1.00;;;;;;;;5076032;27;45430;-83
2023/06/27 06:01:45;;;;;;;;;0.00;0.00;;;;;;;;5074639;27;45427;-82
2023/06/27 06:04:10;;;;;;;;;2.00;1.00;;;;;;;;5075618;27;46942;-84
2023/06/27 06:06:38;;;;;;;;;1.00;1.00;;;;;;;;5075286;28;45347;-82
2023/06/27 06:09:03;;;;;;;;;0.50;0.00;;;;;;;;5075246;28;45481;-84
2023/06/27 06:11:28;;;;;;;;;0.00;0.00;;;;;;;;5075296;28;45433;-81
2023/06/27 06:13:54;;;;;;;;;2.00;0.00;;;;;;;;5075121;27;46921;-82
2023/06/27 06:16:19;;;;;;;;;1.00;1.00;;;;;;;;5074083;28;45522;-81
2023/06/27 06:18:44;;;;;;;;;1.67;1.00;;;;;;;;5072841;28;45376;-83
2023/06/27 06:21:12;;;;;;;;;3.00;1.67;;;;;;;;5073489;27;45456;-81
2023/06/27 06:23:37;;;;;;;;;2.00;0.00;;;;;;;;5074141;28;46344;-83
2023/06/27 06:26:02;;;;;;;;;0.67;0.67;;;;;;;;5075156;28;45511;-84
2023/06/27 06:28:27;;;;;;;;;1.00;1.00;;;;;;;;5073474;28;45418;-83
2023/06/27 06:30:52;;;;;;;;;1.00;1.00;;;;;;;;5074839;28;45598;-83
2023/06/27 06:33:18;;;;;;;;;1.00;1.00;;;;;;;;5077342;28;46228;-84
2023/06/27 06:35:43;;;;;;;;;2.67;0.67;;;;;;;;5077901;27;45503;-81
2023/06/27 06:38:08;;;;;;;;;1.00;1.00;;;;;;;;5078966;27;45545;-82
2023/06/27 06:40:33;;;;;;;;;4.00;1.00;;;;;;;;5079078;28;45435;-82
2023/06/27 06:42:59;;;;;;;;;3.50;1.75;;;;;;;;5078599;28;45499;-82
2023/06/27 06:45:24;;;;;;;;;2.25;1.00;;;;;;;;5079167;28;45413;-83
2023/06/27 06:47:49;;;;;;;;;3.75;1.00;;;;;;;;5078789;28;45214;-86
2023/06/27 06:50:15;;;;;;;;;4.67;0.00;;;;;;;;5078418;28;45327;-86
2023/06/27 06:52:40;;;;;;;;;1.00;1.00;;;;;;;;5079039;27;46219;-83
2023/06/27 06:55:05;;;;;;;;;2.33;1.00;;;;;;;;5099169;27;45358;-83
2023/06/27 06:57:30;;;;;;;;;3.00;1.00;;;;;;;;5099235;27;45368;-84
2023/06/27 06:59:56;;;;;;;;;1.00;0.00;;;;;;;;5081744;27;45469;-83
2023/06/27 07:02:21;;;;;;;;;0.00;0.00;;;;;;;;5079003;28;45526;-83
2023/06/27 07:04:46;;;;;;;;;0.00;0.00;;;;;;;;5078477;28;45449;-84
2023/06/27 07:07:11;;;;;;;;;2.00;1.00;;;;;;;;5078724;28;45357;-83
2023/06/27 07:09:36;;;;;;;;;2.25;1.00;;;;;;;;5078740;28;45485;-83
2023/06/27 07:12:02;;;;;;;;;1.00;1.00;;;;;;;;5078546;28;46456;-84
2023/06/27 07:14:27;;;;;;;;;2.00;0.00;;;;;;;;5077407;28;45341;-83
2023/06/27 07:16:52;;;;;;;;;1.00;1.00;;;;;;;;5069618;27;48134;-87
2023/06/27 07:19:17;;;;;;;;;2.00;0.00;;;;;;;;5066682;27;45524;-84
2023/06/27 07:21:43;;;;;;;;;3.00;2.00;;;;;;;;5067302;27;45631;-83
2023/06/27 07:24:08;;;;;;;;;0.75;0.75;;;;;;;;5078403;27;45411;-83
2023/06/27 07:26:34;;;;;;;;;2.00;1.00;;;;;;;;5082455;27;45450;-84
2023/06/27 07:28:59;;;;;;;;;2.00;1.00;;;;;;;;5079371;27;45430;-84
2023/06/27 07:31:24;;;;;;;;;1.00;0.00;;;;;;;;5079240;27;45518;-84
2023/06/27 07:33:49;;;;;;;;;2.00;0.75;;;;;;;;5070574;27;45831;-83
2023/06/27 07:36:15;;;;;;;;;1.00;1.00;;;;;;;;5088432;27;45454;-83
2023/06/27 07:38:40;;;;;;;;;2.33;0.00;;;;;;;;5080580;27;45535;-83
2023/06/27 07:41:05;;;;;;;;;2.67;0.00;;;;;;;;5088477;27;45386;-84
2023/06/27 07:43:30;;;;;;;;;4.00;1.00;;;;;;;;5080237;27;45346;-84
2023/06/27 07:45:55;;;;;;;;;0.00;0.00;;;;;;;;5077304;27;45255;-84
2023/06/27 07:48:21;;;;;;;;;1.67;1.33;;;;;;;;5079528;27;45343;-84
2023/06/27 07:50:46;;;;;;;;;2.33;0.00;;;;;;;;5077185;27;45927;-85
2023/06/27 07:53:11;;;;;;;;;3.00;1.00;;;;;;;;5076612;27;45488;-84
2023/06/27 07:55:36;;;;;;;;;0.00;0.00;;;;;;;;5078231;27;45449;-83
2023/06/27 07:58:02;;;;;;;;;3.00;2.00;;;;;;;;5076095;27;45502;-85
2023/06/27 08:00:27;;;;;;;;;2.25;0.00;;;;;;;;5076000;27;46976;-84
2023/06/27 08:02:53;;;;;;;;;0.67;0.00;;;;;;;;5069793;28;45445;-83
2023/06/27 08:05:18;;;;;;;;;2.00;0.67;;;;;;;;5080547;27;45232;-84
2023/06/27 08:07:44;;;;;;;;;0.25;0.25;;;;;;;;5075539;28;45423;-84
2023/06/27 08:10:11;;;;;;;;;1.00;1.00;;;;;;;;5072759;27;47070;-85
2023/06/27 08:12:37;;;;;;;;;0.00;0.00;;;;;;;;5073856;28;45420;-85
2023/06/27 08:15:02;;;;;;;;;4.50;0.00;;;;;;;;5079227;27;45547;-83
2023/06/27 08:17:27;;;;;;;;;1.67;1.00;;;;;;;;5076023;27;45471;-84
2023/06/27 08:19:52;;;;;;;;;1.33;0.00;;;;;;;;5080340;27;46001;-84
2023/06/27 08:22:18;;;;;;;;;0.25;0.00;;;;;;;;5075439;27;46323;-81
2023/06/27 08:24:43;;;;;;;;;1.00;1.00;;;;;;;;5077183;27;45542;-82
2023/06/27 08:27:08;;;;;;;;;1.00;1.00;;;;;;;;5081595;27;45307;-82
2023/06/27 08:29:34;;;;;;;;;1.67;0.33;;;;;;;;5078653;27;45386;-81
2023/06/27 08:31:59;;;;;;;;;0.00;0.00;;;;;;;;5081977;27;46092;-81
2023/06/27 08:34:26;;;;;;;;;1.00;0.75;;;;;;;;5076593;27;45488;-82
2023/06/27 08:36:51;;;;;;;;;3.00;0.00;;;;;;;;5074793;27;45596;-81
2023/06/27 08:39:16;;;;;;;;;2.00;1.00;;;;;;;;5085120;27;46136;-81
2023/06/27 08:41:42;;;;;;;;;0.25;0.00;;;;;;;;5073648;27;45452;-81
2023/06/27 08:44:07;;;;;;;;;1.25;1.00;;;;;;;;5076976;27;45467;-81
2023/06/27 08:46:33;;;;;;;;;1.00;0.00;;;;;;;;5075074;27;45341;-82
2023/06/27 08:49:02;;;;;;;;;1.75;0.00;;;;;;;;5075766;27;46349;-81
2023/06/27 08:51:27;;;;;;;;;3.00;2.00;;;;;;;;5078811;27;45456;-81
2023/06/27 08:53:56;;;;;;;;;3.00;0.00;;;;;;;;5075360;27;45624;-81
2023/06/27 08:56:22;;;;;;;;;2.00;1.50;;;;;;;;5080763;27;45319;-82
2023/06/27 08:58:51;;;;;;;;;1.00;0.75;;;;;;;;5072676;27;46274;-80
2023/06/27 09:01:16;;;;;;;;;3.00;0.00;;;;;;;;5074636;27;45372;-80
2023/06/27 09:03:42;;;;;;;;;0.50;0.00;;;;;;;;5080445;27;45506;-80
2023/06/27 09:06:07;;;;;;;;;1.25;0.25;;;;;;;;5075506;27;45499;-80
2023/06/27 09:08:33;;;;;;;;;1.00;0.00;;;;;;;;5078495;27;45449;-80
2023/06/27 09:10:58;;;;;;;;;2.25;1.00;;;;;;;;5074774;27;46451;-81
2023/06/27 09:13:24;;;;;;;;;1.50;0.00;;;;;;;;5080059;27;45849;-82
2023/06/27 09:15:49;;;;;;;;;0.33;0.33;;;;;;;;5072927;27;45845;-81
2023/06/27 09:18:14;;;;;;;;;3.00;0.33;;;;;;;;5075037;27;47190;-80
2023/06/27 09:20:39;;;;;;;;;1.00;0.00;;;;;;;;5087232;27;46216;-81
2023/06/27 09:23:05;;;;;;;;;0.25;0.00;;;;;;;;5061579;28;45383;-81
2023/06/27 09:25:30;;;;;;;;;3.00;1.00;;;;;;;;5074743;27;45557;-82
2023/06/27 09:27:55;;;;;;;;;1.00;0.33;;;;;;;;5085101;27;46968;-80
2023/06/27 09:30:21;;;;;;;;;1.33;1.00;;;;;;;;5084354;27;45463;-81
2023/06/27 09:32:53;;;;;;;;;0.50;0.50;;;;;;;;5082035;27;46448;-82
2023/06/27 09:35:19;;;;;;;;;1.75;0.25;;;;;;;;5074846;28;45489;-80
2023/06/27 09:37:44;;;;;;;;;0.25;0.25;;;;;;;;5082336;27;46095;-82
2023/06/27 09:40:17;;;;;;;;;0.75;0.00;;;;;;;;5079514;27;45451;-82
2023/06/27 09:42:52;;;;;;;;;2.00;1.00;;;;;;;;5078679;27;45446;-81
2023/06/27 09:45:18;;;;;;;;;0.00;0.00;;;;;;;;5077944;27;45518;-82
2023/06/27 09:47:43;;;;;;;;;1.50;0.50;;;;;;;;5082337;27;45449;-81
2023/06/27 09:50:09;;;;;;;;;1.00;0.50;;;;;;;;5073972;27;45434;-81
2023/06/27 09:52:34;;;;;;;;;0.75;0.50;;;;;;;;5079910;27;45322;-81
2023/06/27 09:54:59;;;;;;;;;1.50;0.00;;;;;;;;5073986;27;45457;-82
2023/06/27 09:57:26;;;;;;;;;0.25;0.25;;;;;;;;5077901;27;45405;-82
2023/06/27 10:00:00;;;;;;;;;1.75;0.75;;;;;;;;5071778;27;45701;-84
2023/06/27 10:02:29;;;;;;;;;1.75;0.00;;;;;;;;5081156;27;45533;-81
2023/06/27 10:04:54;;;;;;;;;0.25;0.00;;;;;;;;5071064;27;45437;-83
2023/06/27 10:07:20;;;;;;;;;1.00;0.00;;;;;;;;5075229;27;46406;-85
2023/06/27 10:09:45;;;;;;;;;2.25;0.00;;;;;;;;5067255;27;45443;-83
2023/06/27 10:12:12;;;;;;;;;0.00;0.00;;;;;;;;5074346;28;45486;-83
2023/06/27 10:14:38;;;;;;;;;0.75;0.00;;;;;;;;5074530;27;45463;-84
2023/06/27 10:17:03;;;;;;;;;1.50;0.00;;;;;;;;5074591;27;45694;-83
2023/06/27 10:19:30;;;;;;;;;0.00;0.00;;;;;;;;5074302;28;45453;-83
2023/06/27 10:21:57;;;;;;;;;2.25;0.50;;;;;;;;5078245;27;45589;-83
2023/06/27 10:24:23;;;;;;;;;0.00;0.00;;;;;;;;5077953;27;45216;-84
2023/06/27 10:26:51;;;;;;;;;0.25;0.25;;;;;;;;5073196;27;47009;-84
2023/06/27 10:29:16;;;;;;;;;0.00;0.00;;;;;;;;5078881;27;45437;-83
2023/06/27 10:31:45;;;;;;;;;0.50;0.50;;;;;;;;5080374;27;45404;-84
2023/06/27 10:34:18;;;;;;;;;0.00;0.00;;;;;;;;5074394;28;45386;-83
2023/06/27 10:36:49;;;;;;;;;1.25;0.00;;;;;;;;5076443;27;46360;-82
2023/06/27 10:39:27;;;;;;;;;0.75;0.75;;;;;;;;5070992;27;45934;-83
2023/06/27 10:42:03;;;;;;;;;0.00;0.00;;;;;;;;5071783;28;45536;-83
2023/06/27 10:44:28;;;;;;;;;1.75;0.25;;;;;;;;5077105;27;45565;-83
2023/06/27 10:47:12;;;;;;;;;0.00;0.00;;;;;;;;5078177;27;47131;-82
2023/06/27 10:49:37;;;;;;;;;0.25;0.00;;;;;;;;5073912;28;45485;-83
2023/06/27 10:52:03;;;;;;;;;0.00;0.00;;;;;;;;5072567;27;45504;-83
2023/06/27 10:54:28;;;;;;;;;0.00;0.00;;;;;;;;5076873;27;45506;-82
2023/06/27 10:56:53;;;;;;;;;2.00;1.00;;;;;;;;5068484;27;46262;-83
2023/06/27 10:59:19;;;;;;;;;2.00;0.00;;;;;;;;5073318;27;45441;-82
2023/06/27 11:02:04;;;;;;;;;0.00;0.00;;;;;;;;5078533;27;45381;-84
2023/06/27 11:04:43;;;;;;;;;3.25;0.00;;;;;;;;5075898;27;45441;-84
2023/06/27 11:07:13;;;;;;;;;0.00;0.00;;;;;;;;5072328;28;45500;-84
2023/06/27 11:09:48;;;;;;;;;0.50;0.00;;;;;;;;5071646;27;45485;-85
2023/06/27 11:12:17;;;;;;;;;0.00;0.00;;;;;;;;5073671;27;45369;-85
2023/06/27 11:14:46;;;;;;;;;2.00;0.00;;;;;;;;5072864;27;45477;-84
2023/06/27 11:17:11;;;;;;;;;1.00;1.00;;;;;;;;5077338;27;47176;-83
2023/06/27 11:19:42;;;;;;;;;0.75;0.00;;;;;;;;5074776;27;45569;-83
2023/06/27 11:22:07;;;;;;;;;3.50;0.00;;;;;;;;5079529;27;46758;-84
2023/06/27 11:24:32;;;;;;;;;0.00;0.00;;;;;;;;5076696;27;45549;-84
2023/06/27 11:26:58;;;;;;;;;0.00;0.00;;;;;;;;5074065;27;47052;-85
2023/06/27 11:29:24;;;;;;;;;1.50;0.00;;;;;;;;5082490;27;46036;-84
2023/06/27 11:31:50;;;;;;;;;1.75;1.00;;;;;;;;5073775;27;47131;-84
2023/06/27 11:34:16;;;;;;;;;1.00;1.00;;;;;;;;5079350;27;45528;-85
2023/06/27 11:36:41;;;;;;;;;2.00;0.00;;;;;;;;5080140;27;45799;-84
2023/06/27 11:39:09;;;;;;;;;2.75;1.00;;;;;;;;5076075;27;45798;-85
2023/06/27 11:41:37;;;;;;;;;1.75;0.00;;;;;;;;5075601;27;45331;-85
2023/06/27 11:44:06;;;;;;;;;0.00;0.00;;;;;;;;5076218;27;45584;-84
2023/06/27 11:46:31;;;;;;;;;1.00;0.00;;;;;;;;5078711;27;45722;-83
2023/06/27 11:48:56;;;;;;;;;4.00;0.75;;;;;;;;5066960;27;45364;-84
2023/06/27 11:51:22;;;;;;;;;1.00;1.00;;;;;;;;5080204;27;45818;-82
2023/06/27 11:53:48;;;;;;;;;0.00;0.00;;;;;;;;5074061;27;45522;-83
2023/06/27 11:56:13;;;;;;;;;1.25;0.00;;;;;;;;5073970;27;46120;-84
2023/06/27 11:58:38;;;;;;;;;0.33;0.00;;;;;;;;5079424;27;45475;-84
2023/06/27 12:01:11;;;;;;;;;0.00;0.00;;;;;;;;5078119;27;45514;-84
2023/06/27 12:03:36;;;;;;;;;1.00;0.00;;;;;;;;5078323;27;45599;-84
2023/06/27 12:06:01;;;;;;;;;0.00;0.00;;;;;;;;5074331;27;45912;-82
2023/06/27 12:08:30;;;;;;;;;0.00;0.00;;;;;;;;5076916;27;45740;-82
2023/06/27 12:11:01;;;;;;;;;0.00;0.00;;;;;;;;5076509;27;45323;-84
2023/06/27 12:13:37;;;;;;;;;0.00;0.00;;;;;;;;5075716;27;45583;-84
2023/06/27 12:16:03;;;;;;;;;0.00;0.00;;;;;;;;5068782;27;46555;-84
2023/06/27 12:18:28;;;;;;;;;0.00;0.00;;;;;;;;5073596;27;45480;-84
2023/06/27 12:20:54;;;;;;;;;0.00;0.00;;;;;;;;5076106;27;45318;-85
2023/06/27 12:23:19;;;;;;;;;0.25;0.00;;;;;;;;5074321;27;45482;-86
2023/06/27 12:25:44;;;;;;;;;0.00;0.00;;;;;;;;5074210;27;45992;-85
2023/06/27 12:28:10;;;;;;;;;2.00;0.00;;;;;;;;5074973;28;45481;-84
2023/06/27 12:30:35;;;;;;;;;0.75;0.00;;;;;;;;5075771;27;45342;-84
2023/06/27 12:33:01;;;;;;;;;0.00;0.00;;;;;;;;5082249;27;45453;-84
2023/06/27 12:35:26;;;;;;;;;1.00;0.00;;;;;;;;5074125;27;46047;-82
2023/06/27 12:37:52;;;;;;;;;0.00;0.00;;;;;;;;5085643;27;45412;-85
2023/06/27 12:40:17;;;;;;;;;0.00;0.00;;;;;;;;5076890;27;45408;-83
2023/06/27 12:42:43;;;;;;;;;0.00;0.00;;;;;;;;5076187;27;45556;-85
2023/06/27 12:45:09;;;;;;;;;0.75;0.00;;;;;;;;5081551;27;46931;-84
2023/06/27 12:47:36;;;;;;;;;0.75;0.00;;;;;;;;5079768;27;45578;-85
2023/06/27 12:50:01;;;;;;;;;0.00;0.00;;;;;;;;5075672;27;45414;-85
2023/06/27 12:52:26;;;;;;;;;0.00;0.00;;;;;;;;5076170;27;45491;-85
2023/06/27 12:54:51;;;;;;;;;0.00;0.00;;;;;;;;5075115;27;45369;-85
2023/06/27 12:57:16;;;;;;;;;0.00;0.00;;;;;;;;5074862;27;45560;-83
2023/06/27 12:59:42;;;;;;;;;0.00;0.00;;;;;;;;5079570;27;46781;-85
2023/06/27 13:02:07;;;;;;;;;0.00;0.00;;;;;;;;5076144;27;45549;-84
2023/06/27 13:04:32;;;;;;;;;0.00;0.00;;;;;;;;5081906;27;45850;-85
2023/06/27 13:06:58;;;;;;;;;0.00;0.00;;;;;;;;5073688;27;45480;-84
2023/06/27 13:09:23;;;;;;;;;0.00;0.00;;;;;;;;5075152;27;45438;-83
2023/06/27 13:11:48;;;;;;;;;0.00;0.00;;;;;;;;5074982;27;45666;-82
2023/06/27 13:14:14;;;;;;;;;0.00;0.00;;;;;;;;5074289;27;46579;-83
2023/06/27 13:16:39;;;;;;;;;0.00;0.00;;;;;;;;5074476;27;45443;-82
2023/06/27 13:19:07;;;;;;;;;0.00;0.00;;;;;;;;5074221;27;45389;-84
2023/06/27 13:21:32;;;;;;;;;0.00;0.00;;;;;;;;5075678;27;45400;-83
2023/06/27 13:23:57;;;;;;;;;0.00;0.00;;;;;;;;5076077;27;46089;-82
2023/06/27 13:26:22;;;;;;;;;0.00;0.00;;;;;;;;5072830;28;45484;-80
2023/06/27 13:28:47;;;;;;;;;0.00;0.00;;;;;;;;5077733;27;45645;-82
2023/06/27 13:31:13;;;;;;;;;0.33;0.00;;;;;;;;5080852;27;45392;-82
2023/06/27 13:33:38;;;;;;;;;0.00;0.00;;;;;;;;5074620;27;46001;-83
2023/06/27 13:36:05;;;;;;;;;0.00;0.00;;;;;;;;5077011;27;45602;-82
2023/06/27 13:38:31;;;;;;;;;0.00;0.00;;;;;;;;5079760;27;46572;-82
2023/06/27 13:40:56;;;;;;;;;0.00;0.00;;;;;;;;5077714;27;45642;-82
2023/06/27 13:43:21;;;;;;;;;0.00;0.00;;;;;;;;5074428;28;45432;-82
2023/06/27 13:45:51;;;;;;;;;0.00;0.00;;;;;;;;5079898;27;45539;-80
2023/06/27 13:48:16;;;;;;;;;0.00;0.00;;;;;;;;5074855;27;45251;-85
2023/06/27 13:50:41;;;;;;;;;0.00;0.00;;;;;;;;5078436;27;45435;-81
2023/06/27 13:53:06;;;;;;;;;1.67;0.00;;;;;;;;5077688;27;46236;-82
2023/06/27 13:55:31;;;;;;;;;0.00;0.00;;;;;;;;5076204;27;45585;-82
2023/06/27 13:57:57;;;;;;;;;0.00;0.00;;;;;;;;5074675;27;45427;-83
2023/06/27 14:00:24;;;;;;;;;0.00;0.00;;;;;;;;5075511;27;45230;-83
2023/06/27 14:02:49;;;;;;;;;0.00;0.00;;;;;;;;5080290;27;47311;-82
2023/06/27 14:05:14;;;;;;;;;1.00;0.00;;;;;;;;5070593;27;45650;-82
2023/06/27 14:07:39;;;;;;;;;1.25;0.00;;;;;;;;5076521;27;45480;-84
2023/06/27 14:10:05;;;;;;;;;0.00;0.00;;;;;;;;5078733;27;45394;-82
2023/06/27 14:12:30;;;;;;;;;0.00;0.00;;;;;;;;5082552;27;46057;-82
2023/06/27 14:14:56;;;;;;;;;0.00;0.00;;;;;;;;5073677;27;45300;-84
2023/06/27 14:17:22;;;;;;;;;1.00;0.00;;;;;;;;5083653;27;45823;-83
2023/06/27 14:19:47;;;;;;;;;0.00;0.00;;;;;;;;5081938;27;45520;-84
2023/06/27 14:22:13;;;;;;;;;1.00;0.00;;;;;;;;5079020;27;47084;-84
2023/06/27 14:24:38;;;;;;;;;0.00;0.00;;;;;;;;5076278;27;45414;-86
2023/06/27 14:27:04;;;;;;;;;0.00;0.00;;;;;;;;5074853;27;45410;-85
2023/06/27 14:29:29;;;;;;;;;0.00;0.00;;;;;;;;5075000;27;45572;-85
2023/06/27 14:31:54;;;;;;;;;0.00;0.00;;;;;;;;5073587;27;46324;-84
2023/06/27 14:34:19;;;;;;;;;0.00;0.00;;;;;;;;5076161;27;45585;-84
2023/06/27 14:36:45;;;;;;;;;0.00;0.00;;;;;;;;5071679;27;45482;-84